Time;durP1;ratioP1;P1;durP2;ratioP2;P2;SDS_P1;SDS_P2;PMS_P1;PMS_P2;Temp;Humidity;BMP_temperature;BMP_pressure;BME280_temperature;BME280_humidity;BME280_pressure;Samples;Min_cycle;Max_cycle;Signal;HPM_P1;HPM_P2
2021/11/17 02:28:11;;;;;;;1.10;0.70;;;;;;;;;;4163269;28;20061;-41
2021/11/17 02:30:55;;;;;;;0.82;0.70;;;;;;;;;;4180433;28;20061;-41
2021/11/17 02:33:46;;;;;;;0.90;0.60;;;;;;;;;;4148165;28;20058;-42
2021/11/17 02:35:58;;;;;;;0.52;0.50;;;;;;;;;;4088473;28;20050;-47
2021/11/17 02:38:14;;;;;;;0.88;0.73;;;;;;;;;;4147683;28;20057;-43
2021/11/17 02:40:28;;;;;;;0.98;0.70;;;;;;;;;;4148103;28;20053;-45
2021/11/17 02:42:43;;;;;;;1.60;1.10;;;;;;;;;;4147971;28;20116;-43
2021/11/17 02:44:53;;;;;;;0.77;0.60;;;;;;;;;;4148078;28;20116;-42
2021/11/17 02:47:00;;;;;;;;;;;;;;;;;;4178064;28;20061;-42
2021/11/17 02:49:26;;;;;;;0.88;0.65;;;;;;;;;;4180553;28;20277;-45
2021/11/17 02:51:57;;;;;;;0.68;0.57;;;;;;;;;;4162491;28;20095;-44
2021/11/17 02:54:31;;;;;;;1.00;0.63;;;;;;;;;;4179140;28;20146;-42
2021/11/17 02:56:50;;;;;;;0.77;0.60;;;;;;;;;;4164366;28;20060;-41
2021/11/17 02:59:00;;;;;;;0.50;0.50;;;;;;;;;;4178262;28;20052;-42
2021/11/17 03:01:27;;;;;;;1.05;0.88;;;;;;;;;;4179514;28;20060;-47
2021/11/17 03:04:07;;;;;;;0.90;0.75;;;;;;;;;;4162775;28;20391;-44
2021/11/17 03:06:38;;;;;;;1.55;0.77;;;;;;;;;;4153578;28;20469;-42
2021/11/17 03:08:48;;;;;;;0.82;0.70;;;;;;;;;;4180104;28;20382;-43
2021/11/17 03:11:19;;;;;;;0.52;0.52;;;;;;;;;;4180650;28;20057;-43
2021/11/17 03:13:53;;;;;;;1.00;0.77;;;;;;;;;;4179454;28;20057;-42
2021/11/17 03:16:13;;;;;;;0.60;0.60;;;;;;;;;;4166610;28;20545;-41
2021/11/17 03:18:49;;;;;;;0.70;0.70;;;;;;;;;;4163625;28;20057;-40
2021/11/17 03:21:17;;;;;;;0.60;0.55;;;;;;;;;;4155188;28;20061;-42
2021/11/17 03:23:37;;;;;;;0.80;0.65;;;;;;;;;;4179726;28;20501;-43
2021/11/17 03:25:54;;;;;;;1.00;0.73;;;;;;;;;;4180505;28;20099;-46
2021/11/17 03:28:03;;;;;;;0.88;0.70;;;;;;;;;;4162659;28;20061;-44
2021/11/17 03:30:06;;;;;;;0.63;0.47;;;;;;;;;;4180682;28;20067;-43
2021/11/17 03:32:43;;;;;;;0.82;0.60;;;;;;;;;;4180742;28;20133;-41
2021/11/17 03:35:06;;;;;;;0.77;0.60;;;;;;;;;;4164891;28;20054;-41
2021/11/17 03:37:36;;;;;;;0.85;0.75;;;;;;;;;;4163736;28;20112;-40
2021/11/17 03:40:21;;;;;;;0.45;0.30;;;;;;;;;;4163966;28;20099;-43
2021/11/17 03:42:52;;;;;;;0.80;0.57;;;;;;;;;;4163810;28;20103;-45
2021/11/17 03:45:08;;;;;;;0.75;0.50;;;;;;;;;;4151211;28;20062;-42
2021/11/17 03:47:45;;;;;;;0.73;0.57;;;;;;;;;;4147478;28;20560;-42
2021/11/17 03:50:23;;;;;;;0.77;0.57;;;;;;;;;;4146561;28;20058;-41
2021/11/17 03:52:59;;;;;;;0.82;0.60;;;;;;;;;;4147535;28;20284;-41
2021/11/17 03:55:19;;;;;;;0.90;0.80;;;;;;;;;;4147387;28;20104;-42
2021/11/17 03:57:52;;;;;;;0.82;0.70;;;;;;;;;;4147666;28;20067;-47
2021/11/17 04:00:23;;;;;;;0.77;0.52;;;;;;;;;;4081446;29;20067;-48
2021/11/17 04:02:50;;;;;;;0.90;0.60;;;;;;;;;;4147464;28;20191;-44
2021/11/17 04:05:09;;;;;;;1.00;0.60;;;;;;;;;;4144492;28;20057;-42
2021/11/17 04:07:26;;;;;;;1.25;0.73;;;;;;;;;;4147319;28;20092;-43
2021/11/17 04:09:39;;;;;;;1.38;0.85;;;;;;;;;;4147008;28;20061;-41
2021/11/17 04:12:03;;;;;;;0.60;0.50;;;;;;;;;;4158038;28;20088;-41
2021/11/17 04:14:17;;;;;;;0.50;0.50;;;;;;;;;;4163650;28;20563;-39
2021/11/17 04:17:10;;;;;;;1.05;0.73;;;;;;;;;;4163636;28;20065;-47
2021/11/17 04:19:34;;;;;;;0.98;0.60;;;;;;;;;;4163520;28;20095;-41
2021/11/17 04:22:02;;;;;;;0.70;0.60;;;;;;;;;;4163365;28;20124;-42
2021/11/17 04:24:36;;;;;;;0.60;0.60;;;;;;;;;;4163179;28;20061;-41
2021/11/17 04:27:02;;;;;;;0.60;0.45;;;;;;;;;;4162333;28;20057;-43
2021/11/17 04:29:22;;;;;;;0.70;0.55;;;;;;;;;;4163411;28;20088;-39
2021/11/17 04:31:23;;;;;;;0.70;0.70;;;;;;;;;;4163597;28;20099;-44
2021/11/17 04:33:46;;;;;;;0.68;0.50;;;;;;;;;;4163199;28;20474;-40
2021/11/17 04:36:16;;;;;;;0.65;0.60;;;;;;;;;;4147500;28;20522;-41
2021/11/17 04:38:19;;;;;;;0.40;0.40;;;;;;;;;;4165828;28;20096;-43
2021/11/17 04:40:48;;;;;;;0.82;0.55;;;;;;;;;;4166470;28;20058;-40
2021/11/17 04:43:04;;;;;;;0.90;0.70;;;;;;;;;;4166558;28;20049;-40
2021/11/17 04:45:27;;;;;;;0.73;0.57;;;;;;;;;;4166331;28;20115;-41
2021/11/17 04:47:40;;;;;;;0.65;0.60;;;;;;;;;;4166174;28;20045;-40
2021/11/17 04:50:12;;;;;;;0.68;0.60;;;;;;;;;;4166388;28;20061;-44
2021/11/17 04:52:22;;;;;;;0.60;0.50;;;;;;;;;;4166130;28;20096;-41
2021/11/17 04:54:44;;;;;;;0.88;0.80;;;;;;;;;;4165654;28;20693;-41
2021/11/17 04:57:01;;;;;;;0.90;0.70;;;;;;;;;;4164940;28;20061;-42
2021/11/17 04:59:37;;;;;;;0.40;0.38;;;;;;;;;;4165938;28;20060;-42
2021/11/17 05:01:56;;;;;;;0.93;0.70;;;;;;;;;;4165940;28;20054;-42
2021/11/17 05:04:11;;;;;;;0.70;0.60;;;;;;;;;;4166152;28;20104;-41
2021/11/17 05:06:41;;;;;;;0.57;0.50;;;;;;;;;;4166236;28;20383;-41
2021/11/17 05:08:48;;;;;;;0.90;0.60;;;;;;;;;;4164070;28;20068;-44
2021/11/17 05:10:56;;;;;;;0.47;0.47;;;;;;;;;;4166105;28;20058;-41
2021/11/17 05:13:18;;;;;;;1.27;0.98;;;;;;;;;;4166045;28;20087;-41
2021/11/17 05:15:29;;;;;;;0.50;0.50;;;;;;;;;;4165636;28;20061;-41
2021/11/17 05:17:39;;;;;;;0.68;0.50;;;;;;;;;;4165742;28;20390;-42
2021/11/17 05:20:09;;;;;;;0.63;0.47;;;;;;;;;;4164548;28;20473;-45
2021/11/17 05:22:47;;;;;;;0.75;0.70;;;;;;;;;;4165656;28;20057;-45
2021/11/17 05:25:06;;;;;;;0.80;0.50;;;;;;;;;;4165683;28;20103;-43
2021/11/17 05:27:20;;;;;;;0.60;0.47;;;;;;;;;;4148281;28;20477;-45
2021/11/17 05:30:01;;;;;;;0.80;0.60;;;;;;;;;;4147965;28;20057;-40
2021/11/17 05:32:24;;;;;;;0.77;0.60;;;;;;;;;;4165525;28;20379;-44
2021/11/17 05:34:35;;;;;;;0.55;0.45;;;;;;;;;;4165551;28;20061;-41
2021/11/17 05:36:56;;;;;;;0.70;0.50;;;;;;;;;;4165750;28;20053;-45
2021/11/17 05:39:08;;;;;;;0.90;0.70;;;;;;;;;;4147487;28;20178;-43
2021/11/17 05:41:28;;;;;;;0.60;0.50;;;;;;;;;;4165380;28;20409;-41
2021/11/17 05:43:44;;;;;;;0.70;0.50;;;;;;;;;;4165368;28;20057;-41
2021/11/17 05:45:58;;;;;;;0.85;0.70;;;;;;;;;;4164343;28;20176;-42
2021/11/17 05:48:15;;;;;;;0.90;0.60;;;;;;;;;;4165446;28;20061;-43
2021/11/17 05:50:34;;;;;;;0.73;0.60;;;;;;;;;;4165222;28;20057;-40
2021/11/17 05:53:09;;;;;;;0.63;0.52;;;;;;;;;;4164748;28;20053;-42
2021/11/17 05:55:30;;;;;;;0.95;0.57;;;;;;;;;;4165117;28;20387;-46
2021/11/17 05:57:44;;;;;;;0.60;0.57;;;;;;;;;;4164926;28;20438;-41
2021/11/17 06:00:27;;;;;;;0.85;0.60;;;;;;;;;;4165266;28;20064;-43
2021/11/17 06:02:47;;;;;;;0.70;0.50;;;;;;;;;;4165085;28;20061;-43
2021/11/17 06:04:48;;;;;;;0.68;0.52;;;;;;;;;;4164967;28;20431;-40
2021/11/17 06:06:49;;;;;;;0.93;0.65;;;;;;;;;;4147559;28;20053;-45
2021/11/17 06:08:54;;;;;;;1.15;0.63;;;;;;;;;;4164143;28;20053;-42
2021/11/17 06:10:59;;;;;;;0.70;0.50;;;;;;;;;;4164649;28;20394;-45
2021/11/17 06:13:02;;;;;;;1.00;0.70;;;;;;;;;;4146982;28;20410;-42
2021/11/17 06:15:08;;;;;;;0.90;0.70;;;;;;;;;;4147685;28;20061;-43
2021/11/17 06:17:23;;;;;;;0.70;0.60;;;;;;;;;;4147440;28;20104;-45
2021/11/17 06:19:28;;;;;;;1.00;0.90;;;;;;;;;;4147063;28;20085;-45
2021/11/17 06:21:29;;;;;;;0.70;0.60;;;;;;;;;;4164509;28;20057;-41
2021/11/17 06:23:59;;;;;;;1.15;0.60;;;;;;;;;;4163975;28;20064;-44
2021/11/17 06:26:05;;;;;;;1.15;0.80;;;;;;;;;;4161615;28;20103;-40
2021/11/17 06:28:20;;;;;;;0.82;0.70;;;;;;;;;;4164472;28;20111;-43
2021/11/17 06:30:24;;;;;;;1.20;0.80;;;;;;;;;;4164633;28;20056;-43
2021/11/17 06:32:28;;;;;;;0.68;0.57;;;;;;;;;;4163980;28;20053;-45
2021/11/17 06:34:38;;;;;;;1.35;0.68;;;;;;;;;;4146963;28;20050;-40
2021/11/17 06:36:39;;;;;;;1.00;0.70;;;;;;;;;;4164191;28;20061;-43
2021/11/17 06:38:40;;;;;;;1.13;0.88;;;;;;;;;;4163744;28;20087;-41
2021/11/17 06:40:43;;;;;;;1.35;0.82;;;;;;;;;;4164239;28;20107;-43
2021/11/17 06:42:49;;;;;;;1.17;0.98;;;;;;;;;;4146431;28;20094;-45
2021/11/17 06:44:53;;;;;;;1.15;0.73;;;;;;;;;;4130330;28;20054;-42
2021/11/17 06:47:00;;;;;;;0.82;0.57;;;;;;;;;;4161981;28;20053;-40
2021/11/17 06:49:02;;;;;;;0.98;0.73;;;;;;;;;;4169809;28;20057;-44
2021/11/17 06:51:04;;;;;;;0.90;0.50;;;;;;;;;;4154332;28;20119;-45
2021/11/17 06:53:07;;;;;;;1.58;0.88;;;;;;;;;;4161238;28;20375;-47
2021/11/17 06:55:09;;;;;;;0.95;0.80;;;;;;;;;;4152575;28;20104;-43
2021/11/17 06:57:18;;;;;;;1.10;1.00;;;;;;;;;;4133189;28;20454;-42
2021/11/17 06:59:20;;;;;;;1.05;0.85;;;;;;;;;;4158087;28;20057;-45
2021/11/17 07:01:23;;;;;;;1.63;1.00;;;;;;;;;;4163432;28;20064;-46
2021/11/17 07:03:30;;;;;;;0.95;0.50;;;;;;;;;;4130459;28;20100;-43
2021/11/17 07:05:50;;;;;;;1.30;0.82;;;;;;;;;;4155983;28;20053;-42
2021/11/17 07:07:55;;;;;;;0.75;0.57;;;;;;;;;;4164408;28;20438;-43
2021/11/17 07:09:57;;;;;;;0.80;0.63;;;;;;;;;;4169899;28;20053;-43
2021/11/17 07:11:58;;;;;;;1.27;0.80;;;;;;;;;;4163870;28;20133;-43
2021/11/17 07:14:21;;;;;;;2.00;1.10;;;;;;;;;;4160568;28;20050;-44
2021/11/17 07:16:41;;;;;;;2.25;0.85;;;;;;;;;;4149427;28;20107;-41
2021/11/17 07:18:48;;;;;;;1.90;0.82;;;;;;;;;;4143577;28;20104;-40
2021/11/17 07:20:52;;;;;;;2.58;1.10;;;;;;;;;;4165871;28;20584;-51
2021/11/17 07:22:59;;;;;;;2.03;1.02;;;;;;;;;;4182638;28;20053;-42
2021/11/17 07:25:00;;;;;;;1.40;0.88;;;;;;;;;;4160684;28;20061;-41
2021/11/17 07:27:01;;;;;;;1.63;1.13;;;;;;;;;;4178821;28;20049;-44
2021/11/17 07:29:03;;;;;;;2.08;1.00;;;;;;;;;;4169168;28;20379;-43
2021/11/17 07:31:05;;;;;;;2.15;1.00;;;;;;;;;;4165736;28;20075;-42
2021/11/17 07:33:10;;;;;;;0.98;0.57;;;;;;;;;;4170993;28;20434;-44
2021/11/17 07:35:17;;;;;;;1.58;1.23;;;;;;;;;;4171867;28;20063;-41
2021/11/17 07:37:19;;;;;;;1.00;0.90;;;;;;;;;;4156074;28;20053;-43
2021/11/17 07:39:20;;;;;;;1.10;0.70;;;;;;;;;;4139668;28;20199;-45
2021/11/17 07:41:21;;;;;;;2.03;0.85;;;;;;;;;;4173997;28;20110;-41
2021/11/17 07:43:25;;;;;;;3.00;1.15;;;;;;;;;;4172112;28;20184;-43
2021/11/17 07:45:27;;;;;;;1.38;0.80;;;;;;;;;;4173920;28;20049;-41
2021/11/17 07:47:29;;;;;;;1.27;0.68;;;;;;;;;;4173239;28;20049;-42
2021/11/17 07:49:30;;;;;;;3.58;1.00;;;;;;;;;;4166242;28;20057;-45
2021/11/17 07:51:40;;;;;;;1.02;0.70;;;;;;;;;;4173971;28;20053;-41
2021/11/17 07:53:42;;;;;;;1.50;0.82;;;;;;;;;;4184164;28;20099;-44
2021/11/17 07:55:55;;;;;;;1.00;0.70;;;;;;;;;;4167654;28;20045;-42
2021/11/17 07:58:00;;;;;;;3.63;0.90;;;;;;;;;;4175286;28;20167;-42
2021/11/17 08:00:25;;;;;;;1.50;0.80;;;;;;;;;;4152952;28;20073;-46
2021/11/17 08:02:28;;;;;;;1.08;0.90;;;;;;;;;;4160602;28;20068;-43
2021/11/17 08:04:35;;;;;;;1.92;1.30;;;;;;;;;;4170552;28;20496;-41
2021/11/17 08:06:38;;;;;;;3.80;1.10;;;;;;;;;;4169780;28;20092;-40
2021/11/17 08:08:55;;;;;;;4.13;1.17;;;;;;;;;;4169443;28;20139;-43
2021/11/17 08:10:58;;;;;;;1.50;0.90;;;;;;;;;;4173677;28;20049;-42
2021/11/17 08:13:00;;;;;;;3.17;0.90;;;;;;;;;;4174832;28;20434;-44
2021/11/17 08:15:02;;;;;;;1.00;0.80;;;;;;;;;;4172280;28;20048;-42
2021/11/17 08:17:04;;;;;;;1.67;1.02;;;;;;;;;;4166632;28;20071;-44
2021/11/17 08:19:07;;;;;;;2.20;1.05;;;;;;;;;;4167644;28;20126;-41
2021/11/17 08:21:13;;;;;;;1.50;1.00;;;;;;;;;;4176440;28;20358;-41
2021/11/17 08:23:14;;;;;;;2.03;1.10;;;;;;;;;;4173260;28;20357;-43
2021/11/17 08:25:16;;;;;;;1.63;1.10;;;;;;;;;;4165847;28;20053;-48
2021/11/17 08:27:21;;;;;;;2.55;1.25;;;;;;;;;;4165107;28;20386;-45
2021/11/17 08:29:22;;;;;;;2.17;1.00;;;;;;;;;;4168788;28;20480;-42
2021/11/17 08:31:25;;;;;;;3.05;1.10;;;;;;;;;;4173369;28;20057;-43
2021/11/17 08:33:28;;;;;;;1.27;1.00;;;;;;;;;;4174693;28;20063;-41
2021/11/17 08:35:29;;;;;;;2.03;1.00;;;;;;;;;;4170989;28;20091;-42
2021/11/17 08:37:50;;;;;;;1.40;1.00;;;;;;;;;;4168377;28;20057;-41
2021/11/17 08:40:00;;;;;;;1.65;0.95;;;;;;;;;;4165930;28;20356;-44
2021/11/17 08:42:07;;;;;;;1.75;0.93;;;;;;;;;;4167533;28;20106;-44
2021/11/17 08:44:08;;;;;;;1.60;1.05;;;;;;;;;;4168167;28;20053;-42
2021/11/17 08:46:10;;;;;;;1.73;1.13;;;;;;;;;;4169548;28;20056;-42
2021/11/17 08:48:12;;;;;;;2.22;1.25;;;;;;;;;;4171023;28;20068;-44
2021/11/17 08:50:17;;;;;;;2.88;1.65;;;;;;;;;;4164962;28;20362;-42
2021/11/17 08:52:18;;;;;;;4.20;1.60;;;;;;;;;;4157772;28;20081;-43
2021/11/17 08:54:19;;;;;;;2.10;1.42;;;;;;;;;;4168374;28;20064;-48
2021/11/17 08:56:20;;;;;;;2.80;1.52;;;;;;;;;;4170211;28;20119;-42
2021/11/17 08:58:23;;;;;;;1.73;1.20;;;;;;;;;;4171880;28;20489;-43
2021/11/17 09:00:25;;;;;;;1.98;1.48;;;;;;;;;;4170155;28;20233;-47
2021/11/17 09:02:43;;;;;;;1.55;1.00;;;;;;;;;;4172562;28;20401;-43
2021/11/17 09:04:45;;;;;;;2.90;1.58;;;;;;;;;;4170461;28;20053;-42
2021/11/17 09:06:49;;;;;;;2.95;1.77;;;;;;;;;;4170867;28;20049;-42
2021/11/17 09:08:51;;;;;;;2.55;1.60;;;;;;;;;;4175189;28;20057;-43
2021/11/17 09:10:56;;;;;;;2.83;1.67;;;;;;;;;;4172725;28;20061;-45
2021/11/17 09:12:58;;;;;;;3.00;1.77;;;;;;;;;;4171783;28;20049;-47
2021/11/17 09:15:05;;;;;;;2.75;1.48;;;;;;;;;;4171864;28;20204;-45
2021/11/17 09:17:11;;;;;;;3.05;1.33;;;;;;;;;;4173829;28;20408;-42
2021/11/17 09:19:31;;;;;;;2.13;1.55;;;;;;;;;;4167868;28;20106;-42
2021/11/17 09:21:41;;;;;;;2.63;1.50;;;;;;;;;;4168916;28;20061;-44
2021/11/17 09:23:45;;;;;;;2.83;1.60;;;;;;;;;;4169780;28;20053;-42
2021/11/17 09:26:04;;;;;;;;;;;;;;;;;;4171816;28;20660;-42
2021/11/17 09:28:06;;;;;;;2.78;1.65;;;;;;;;;;4172481;28;19979;-41
2021/11/17 09:30:11;;;;;;;2.78;1.60;;;;;;;;;;4167608;28;20054;-43
2021/11/17 09:32:13;;;;;;;3.13;1.80;;;;;;;;;;4168842;28;20661;-41
2021/11/17 09:34:16;;;;;;;1.80;1.33;;;;;;;;;;4171238;28;20090;-42
2021/11/17 09:36:19;;;;;;;3.75;1.58;;;;;;;;;;4162947;28;20696;-41
2021/11/17 09:38:24;;;;;;;2.55;1.92;;;;;;;;;;4168901;28;20102;-41
2021/11/17 09:40:40;;;;;;;2.42;1.70;;;;;;;;;;4167428;28;20110;-45
2021/11/17 09:42:43;;;;;;;3.85;1.58;;;;;;;;;;4157528;28;20491;-42
2021/11/17 09:44:45;;;;;;;3.38;1.77;;;;;;;;;;4163546;28;20129;-42
2021/11/17 09:46:48;;;;;;;3.30;1.88;;;;;;;;;;4169684;28;20151;-45
2021/11/17 09:49:02;;;;;;;3.03;1.60;;;;;;;;;;4168673;28;20177;-45
2021/11/17 09:51:11;;;;;;;2.75;1.60;;;;;;;;;;4166666;28;20111;-44
2021/11/17 09:53:18;;;;;;;2.85;1.60;;;;;;;;;;4169023;28;20394;-43
2021/11/17 09:55:47;;;;;;;4.22;1.88;;;;;;;;;;4164979;28;20071;-42
2021/11/17 09:58:02;;;;;;;4.07;2.00;;;;;;;;;;4155197;28;21231;-45
2021/11/17 10:00:18;;;;;;;2.47;2.05;;;;;;;;;;4166161;28;20064;-42
2021/11/17 10:02:34;;;;;;;2.22;1.83;;;;;;;;;;4167387;28;20065;-46
2021/11/17 10:04:40;;;;;;;3.10;1.42;;;;;;;;;;4152130;28;20509;-45
2021/11/17 10:08:06;;;;;;;2.00;1.80;;;;;;;;;;4170745;28;20062;-44
2021/11/17 10:12:49;;;;;;;2.72;1.83;;;;;;;;;;4154737;28;20200;-43
2021/11/17 10:14:38;;;;;;;7.25;2.25;;;;;;;;;;4146464;28;20115;-41
2021/11/17 10:16:40;;;;;;;3.45;1.45;;;;;;;;;;4168095;28;20057;-43
2021/11/17 10:18:42;;;;;;;4.25;1.70;;;;;;;;;;4167033;28;20064;-43
2021/11/17 10:20:52;;;;;;;2.30;1.80;;;;;;;;;;4172938;28;20061;-44
2021/11/17 10:23:05;;;;;;;4.45;2.30;;;;;;;;;;4170265;28;20533;-41
2021/11/17 10:25:43;;;;;;;2.40;2.00;;;;;;;;;;4170521;28;20118;-44
2021/11/17 10:27:52;;;;;;;3.50;2.15;;;;;;;;;;4169840;28;20049;-41
2021/11/17 10:30:21;;;;;;;2.85;2.13;;;;;;;;;;4169971;28;20051;-43
2021/11/17 10:32:40;;;;;;;3.33;2.03;;;;;;;;;;4167713;28;20102;-42
2021/11/17 10:35:25;;;;;;;4.53;2.33;;;;;;;;;;4163110;28;20437;-42
2021/11/17 10:37:40;;;;;;;3.13;2.10;;;;;;;;;;4166573;28;20592;-46
2021/11/17 10:39:48;;;;;;;4.45;2.50;;;;;;;;;;4163700;28;20130;-43
2021/11/17 10:42:03;;;;;;;6.45;3.00;;;;;;;;;;4154488;28;20057;-43
2021/11/17 10:44:13;;;;;;;4.75;2.83;;;;;;;;;;4167111;28;20166;-45
2021/11/17 10:46:21;;;;;;;4.03;2.97;;;;;;;;;;4160988;28;20107;-48
2021/11/17 10:48:33;;;;;;;5.63;3.60;;;;;;;;;;4163787;28;20056;-46
2021/11/17 10:50:37;;;;;;;5.95;3.90;;;;;;;;;;4164028;28;20045;-49
2021/11/17 10:53:06;;;;;;;7.03;3.47;;;;;;;;;;4158032;28;20191;-46
2021/11/17 10:55:27;;;;;;;4.93;3.30;;;;;;;;;;4154287;28;20154;-44
2021/11/17 10:57:32;;;;;;;6.53;3.88;;;;;;;;;;4169126;28;20454;-44
2021/11/17 10:59:37;;;;;;;4.85;3.50;;;;;;;;;;4170703;28;20049;-41
2021/11/17 11:01:44;;;;;;;5.35;3.83;;;;;;;;;;4169710;28;20106;-48
2021/11/17 11:03:49;;;;;;;6.25;3.97;;;;;;;;;;4138352;28;20053;-43
2021/11/17 11:06:05;;;;;;;5.93;3.75;;;;;;;;;;4154663;28;20054;-42
2021/11/17 11:08:23;;;;;;;6.97;4.97;;;;;;;;;;4151022;28;20081;-42
2021/11/17 11:10:46;;;;;;;6.95;4.25;;;;;;;;;;4170562;28;20435;-42
2021/11/17 11:12:51;;;;;;;6.63;4.25;;;;;;;;;;4170105;28;20053;-46
2021/11/17 11:15:03;;;;;;;5.25;3.70;;;;;;;;;;4168331;28;20050;-43
2021/11/17 11:17:24;;;;;;;6.90;4.80;;;;;;;;;;4141125;28;20589;-43
2021/11/17 11:19:27;;;;;;;5.63;3.95;;;;;;;;;;4154898;28;20466;-43
2021/11/17 11:21:43;;;;;;;7.93;4.10;;;;;;;;;;4164262;28;20154;-43
2021/11/17 11:24:09;;;;;;;6.97;4.35;;;;;;;;;;4166691;28;20064;-42
2021/11/17 11:26:16;;;;;;;7.38;4.10;;;;;;;;;;4167990;28;20053;-44
2021/11/17 11:28:20;;;;;;;5.22;3.78;;;;;;;;;;4163834;28;20104;-43
2021/11/17 11:30:38;;;;;;;5.97;3.83;;;;;;;;;;4171036;28;20445;-44
2021/11/17 11:32:41;;;;;;;6.82;4.25;;;;;;;;;;4166949;28;20114;-45
2021/11/17 11:34:58;;;;;;;8.68;4.18;;;;;;;;;;4167713;28;20068;-43
2021/11/17 11:37:00;;;;;;;9.15;4.32;;;;;;;;;;4157541;28;20456;-46
2021/11/17 11:39:01;;;;;;;5.40;3.50;;;;;;;;;;4140367;28;20067;-44
2021/11/17 11:41:08;;;;;;;5.35;3.90;;;;;;;;;;4159243;28;20056;-44
2021/11/17 11:43:20;;;;;;;6.15;4.20;;;;;;;;;;4161442;28;20127;-43
2021/11/17 11:45:43;;;;;;;9.07;4.03;;;;;;;;;;4167609;28;20434;-47
2021/11/17 11:48:30;;;;;;;6.97;4.45;;;;;;;;;;4165442;28;20435;-42
2021/11/17 11:50:33;;;;;;;8.05;4.60;;;;;;;;;;4164505;28;20449;-42
2021/11/17 11:52:37;;;;;;;6.47;4.47;;;;;;;;;;4165712;28;20053;-45
2021/11/17 11:54:56;;;;;;;6.68;4.05;;;;;;;;;;4166110;28;20056;-43
2021/11/17 11:57:00;;;;;;;8.10;4.43;;;;;;;;;;4169067;28;20471;-41
2021/11/17 11:59:11;;;;;;;6.07;4.03;;;;;;;;;;4166297;28;20053;-43
2021/11/17 12:01:20;;;;;;;7.45;4.68;;;;;;;;;;4167224;28;20112;-43
2021/11/17 12:03:24;;;;;;;6.65;4.20;;;;;;;;;;4162122;28;20552;-42
2021/11/17 12:05:44;;;;;;;7.18;4.50;;;;;;;;;;4171475;28;20477;-42
2021/11/17 12:07:50;;;;;;;6.15;4.18;;;;;;;;;;4148846;28;20058;-41
2021/11/17 12:10:22;;;;;;;6.07;3.35;;;;;;;;;;4157341;28;20104;-41
2021/11/17 12:12:36;;;;;;;5.53;4.05;;;;;;;;;;4162779;28;20189;-42
2021/11/17 12:14:45;;;;;;;8.25;3.97;;;;;;;;;;4162603;28;20060;-42
2021/11/17 12:16:50;;;;;;;7.10;3.92;;;;;;;;;;4166161;28;20413;-44
2021/11/17 12:18:51;;;;;;;6.20;4.32;;;;;;;;;;4134884;28;20113;-42
2021/11/17 12:20:59;;;;;;;5.50;3.42;;;;;;;;;;4167812;28;20509;-45
2021/11/17 12:23:13;;;;;;;8.00;3.53;;;;;;;;;;4167753;28;20057;-43
2021/11/17 12:25:20;;;;;;;4.07;3.17;;;;;;;;;;4165054;28;20138;-42
2021/11/17 12:27:30;;;;;;;4.10;2.58;;;;;;;;;;4163645;28;20343;-42
2021/11/17 12:29:47;;;;;;;6.82;3.10;;;;;;;;;;4153646;28;20123;-44
2021/11/17 12:31:55;;;;;;;;;;;;;;;;;;4164859;28;20058;-46
2021/11/17 12:34:12;;;;;;;5.15;2.67;;;;;;;;;;4163330;28;19929;-43
2021/11/17 12:36:34;;;;;;;4.88;2.80;;;;;;;;;;4170378;28;20061;-51
2021/11/17 12:38:37;;;;;;;3.75;3.00;;;;;;;;;;4169037;28;20111;-43
2021/11/17 12:40:52;;;;;;;3.55;2.58;;;;;;;;;;4165375;28;20103;-43
2021/11/17 12:42:59;;;;;;;;;;;;;;;;;;4149512;28;20056;-45
2021/11/17 12:45:24;;;;;;;5.80;2.65;;;;;;;;;;4164781;28;19979;-49
2021/11/17 12:47:42;;;;;;;4.03;2.75;;;;;;;;;;4173033;28;20060;-42
2021/11/17 12:50:09;;;;;;;4.57;2.17;;;;;;;;;;4161281;28;20655;-44
2021/11/17 12:52:19;;;;;;;4.25;2.75;;;;;;;;;;4145104;28;20110;-44
2021/11/17 12:54:30;;;;;;;5.05;2.60;;;;;;;;;;4169763;28;20414;-42
2021/11/17 12:56:42;;;;;;;7.18;2.40;;;;;;;;;;4149322;28;20072;-44
2021/11/17 12:58:49;;;;;;;3.45;1.90;;;;;;;;;;4157990;28;20060;-43
2021/11/17 13:00:58;;;;;;;4.90;2.35;;;;;;;;;;4158077;28;20139;-44
2021/11/17 13:03:05;;;;;;;4.25;2.08;;;;;;;;;;4162935;28;20134;-45
2021/11/17 13:05:29;;;;;;;4.65;2.08;;;;;;;;;;4161432;28;20435;-43
2021/11/17 13:07:34;;;;;;;2.65;1.60;;;;;;;;;;4171975;28;21112;-41
2021/11/17 13:09:45;;;;;;;2.83;2.20;;;;;;;;;;4169038;28;20146;-40
2021/11/17 13:12:03;;;;;;;2.67;1.70;;;;;;;;;;4173817;28;20122;-43
2021/11/17 13:14:16;;;;;;;2.50;1.80;;;;;;;;;;4168920;28;20053;-42
2021/11/17 13:16:36;;;;;;;3.10;1.67;;;;;;;;;;4157287;28;20110;-42
2021/11/17 13:18:39;;;;;;;4.88;1.70;;;;;;;;;;4169730;28;20060;-46
2021/11/17 13:21:17;;;;;;;3.40;1.80;;;;;;;;;;4169643;28;20060;-44
2021/11/17 13:23:27;;;;;;;3.13;1.83;;;;;;;;;;4156226;28;20445;-43
2021/11/17 13:25:45;;;;;;;1.95;1.35;;;;;;;;;;4167031;28;20053;-43
2021/11/17 13:27:54;;;;;;;2.40;1.50;;;;;;;;;;4168546;28;20120;-43
2021/11/17 13:29:59;;;;;;;3.45;1.58;;;;;;;;;;4167356;28;20072;-42
2021/11/17 13:32:04;;;;;;;2.75;1.45;;;;;;;;;;4154769;28;20107;-40
2021/11/17 13:34:11;;;;;;;2.30;1.85;;;;;;;;;;4168530;28;21584;-42
2021/11/17 13:36:14;;;;;;;2.25;1.48;;;;;;;;;;4170237;28;20072;-44
2021/11/17 13:38:22;;;;;;;3.25;1.50;;;;;;;;;;4161669;28;20080;-46
2021/11/17 13:40:32;;;;;;;1.60;1.05;;;;;;;;;;4172323;28;20463;-42
2021/11/17 13:42:42;;;;;;;2.25;1.55;;;;;;;;;;4163779;28;20114;-42
2021/11/17 13:44:46;;;;;;;3.08;1.45;;;;;;;;;;4171396;28;20053;-42
2021/11/17 13:47:15;;;;;;;1.30;1.00;;;;;;;;;;4163759;28;20110;-43
2021/11/17 13:49:17;;;;;;;3.33;1.52;;;;;;;;;;4168359;28;20151;-43
2021/11/17 13:51:23;;;;;;;2.65;1.20;;;;;;;;;;4167855;28;20122;-42
2021/11/17 13:53:25;;;;;;;1.98;1.02;;;;;;;;;;4164914;28;20451;-46
2021/11/17 13:55:28;;;;;;;1.70;0.93;;;;;;;;;;4152946;28;20061;-42
2021/11/17 13:57:35;;;;;;;2.00;1.50;;;;;;;;;;4173489;28;20098;-45
2021/11/17 13:59:37;;;;;;;1.52;1.10;;;;;;;;;;4131342;28;20073;-42
2021/11/17 14:01:57;;;;;;;;;;;;;;;;;;4168687;28;20527;-41
2021/11/17 14:03:59;;;;;;;2.53;1.27;;;;;;;;;;4165536;28;19951;-43
2021/11/17 14:06:04;;;;;;;1.60;1.35;;;;;;;;;;4167133;28;20198;-45
2021/11/17 14:08:11;;;;;;;1.55;1.10;;;;;;;;;;4167155;28;20053;-46
2021/11/17 14:10:20;;;;;;;2.33;0.98;;;;;;;;;;4169990;28;20053;-45
2021/11/17 14:12:21;;;;;;;1.30;1.00;;;;;;;;;;4170312;28;20115;-42
2021/11/17 14:14:23;;;;;;;1.25;0.98;;;;;;;;;;4166786;28;20061;-46
2021/11/17 14:16:42;;;;;;;2.15;1.17;;;;;;;;;;4175615;28;20057;-44
2021/11/17 14:18:44;;;;;;;1.27;1.00;;;;;;;;;;4160261;28;20097;-43
2021/11/17 14:20:46;;;;;;;2.40;1.00;;;;;;;;;;4166654;28;20052;-42
2021/11/17 14:22:47;;;;;;;1.15;0.93;;;;;;;;;;4172106;28;20057;-46
2021/11/17 14:24:56;;;;;;;1.77;1.00;;;;;;;;;;4178097;28;20041;-43
2021/11/17 14:27:13;;;;;;;1.48;0.90;;;;;;;;;;4169044;28;20057;-45
2021/11/17 14:29:18;;;;;;;1.80;1.05;;;;;;;;;;4152632;28;20477;-44
2021/11/17 14:31:29;;;;;;;1.10;0.70;;;;;;;;;;4156911;28;20053;-45
2021/11/17 14:33:32;;;;;;;1.42;0.88;;;;;;;;;;4168036;28;20049;-43
2021/11/17 14:35:33;;;;;;;1.75;0.77;;;;;;;;;;4164924;28;20049;-43
2021/11/17 14:37:41;;;;;;;1.73;0.90;;;;;;;;;;4169784;28;20398;-42
2021/11/17 14:39:44;;;;;;;1.52;1.17;;;;;;;;;;4153718;28;23199;-43
2021/11/17 14:41:46;;;;;;;1.23;0.77;;;;;;;;;;4168623;28;23482;-41
2021/11/17 14:43:50;;;;;;;1.38;0.77;;;;;;;;;;4169628;28;20125;-42
2021/11/17 14:45:52;;;;;;;1.40;0.70;;;;;;;;;;4148940;28;20464;-46
2021/11/17 14:47:55;;;;;;;2.05;0.88;;;;;;;;;;4167012;28;20099;-43
2021/11/17 14:49:56;;;;;;;3.40;0.90;;;;;;;;;;4166558;28;20054;-44
2021/11/17 14:52:03;;;;;;;2.30;0.82;;;;;;;;;;4168115;28;20110;-43
2021/11/17 14:54:05;;;;;;;1.02;0.88;;;;;;;;;;4162703;28;20140;-45
2021/11/17 14:56:09;;;;;;;2.45;0.70;;;;;;;;;;4170517;28;20087;-41
2021/11/17 14:58:10;;;;;;;1.25;0.90;;;;;;;;;;4154997;28;20183;-44
2021/11/17 15:00:17;;;;;;;2.90;0.80;;;;;;;;;;4171544;28;20093;-48
2021/11/17 15:02:20;;;;;;;2.30;0.98;;;;;;;;;;4149436;28;20449;-43
2021/11/17 15:04:27;;;;;;;1.80;0.90;;;;;;;;;;4168310;28;20045;-44
2021/11/17 15:06:39;;;;;;;0.70;0.65;;;;;;;;;;4162103;28;20487;-43
2021/11/17 15:08:41;;;;;;;1.15;0.73;;;;;;;;;;4164086;28;20111;-43
2021/11/17 15:10:44;;;;;;;0.70;0.52;;;;;;;;;;4169440;28;20079;-43
2021/11/17 15:12:46;;;;;;;1.27;0.68;;;;;;;;;;4168349;28;20056;-43
2021/11/17 15:14:47;;;;;;;2.88;0.65;;;;;;;;;;4171607;28;20091;-45
2021/11/17 15:16:49;;;;;;;0.80;0.50;;;;;;;;;;4172748;28;20048;-44
2021/11/17 15:18:52;;;;;;;0.77;0.60;;;;;;;;;;4166508;28;20321;-44
2021/11/17 15:20:53;;;;;;;1.35;0.73;;;;;;;;;;4165476;28;20053;-44
2021/11/17 15:23:05;;;;;;;0.88;0.57;;;;;;;;;;4171953;28;20110;-45
2021/11/17 15:25:09;;;;;;;2.22;0.70;;;;;;;;;;4168731;28;20112;-47
2021/11/17 15:27:25;;;;;;;0.85;0.43;;;;;;;;;;4168565;28;20053;-46
2021/11/17 15:29:26;;;;;;;0.73;0.60;;;;;;;;;;4171273;28;20127;-45
2021/11/17 15:31:37;;;;;;;3.92;0.70;;;;;;;;;;4167811;28;20060;-45
2021/11/17 15:33:39;;;;;;;1.48;0.65;;;;;;;;;;4175164;28;20370;-44
2021/11/17 15:35:41;;;;;;;0.75;0.40;;;;;;;;;;4174688;28;20334;-43
2021/11/17 15:37:43;;;;;;;0.60;0.40;;;;;;;;;;4163875;28;20050;-42
2021/11/17 15:39:47;;;;;;;2.22;0.70;;;;;;;;;;4177370;28;20508;-48
2021/11/17 15:41:53;;;;;;;2.08;0.70;;;;;;;;;;4178409;28;20048;-42
2021/11/17 15:44:03;;;;;;;0.90;0.70;;;;;;;;;;4177061;28;20044;-43